Dauphin Airport, Manitoba

Past 24 Hour Conditions

Date / Time
(CDT)
Conditions Temp
(°F)
Humidity
(%)
Dew Point
(°F)
Wind
(mph)
Pressure
(inches)
Visibility
(miles)
25 April 2015
14:00 Mostly Cloudy 56 48 37 E 14 gust 22 29.9 10
13:00 Mostly Cloudy 55 48 36 E 14 gust 20 29.9 10
12:00 Cloudy 51 55 35 ESE 13 gust 20 29.9 10
11:00 Sunny 49 58 35 E 14 29.9 10
10:00 Mostly Cloudy 45 66 34 ESE 7 30.0 10
9:00 Partly Cloudy 42 74 34 ESE 9 30.0 10
8:00 Mainly Sunny 38 81 33 SE 7 30.0 10
7:00 Mostly Cloudy 34 86 31 ESE 6 29.9 10
6:00 Mostly Cloudy 33   88 30 SE 6 29.9 10
5:00 Clear 36 83 31 ESE 6 29.9 10
4:00 Mostly Cloudy 39 79 33 ESE 8 29.9 10
3:00 Mostly Cloudy 42 73 34 SSE 6 29.9 10
2:00 Cloudy 43 69 34 ESE 9 29.9 10
1:00 Mostly Cloudy 46 62 34 ESE 13 29.9 10
00:00 Cloudy 47 61 34 E 8 29.9 10
24 April 2015
23:00 Cloudy 48 58 34 ESE 11 29.9 10
22:00 Cloudy 50 53 34 ESE 11 gust 18 29.8 10
21:00 Cloudy 51 50 33 ESE 9 29.8 10
20:00 Cloudy 53 48 34 SE 16 29.8 10
19:00 Cloudy 53 47 34 SE 17 gust 23 29.8 10
18:00 Cloudy 54 46 34 SE 17 gust 24 29.8 10
17:00 Sunny 57 41 34 ESE 18 29.8 10
16:00 Mainly Sunny 58   36 32 SE 21 29.8 10
15:00 Sunny 57 34 28 SE 18 gust 24 29.8 10
14:00 Sunny 56 31 25 SE 15 gust 21 29.8 10
N/A Not available
↑ Highest temperature
↓ Lowest temperature

If you require additional historical weather information, please visit Climate Data Online.

What we are doing

Date modified: